createdAt,value
2022-10-11T00:01:38.508Z,75.90
2022-10-11T00:04:06.299Z,75.90
2022-10-11T00:06:34.086Z,75.60
2022-10-11T00:09:03.191Z,75.60
2022-10-11T00:11:30.999Z,75.80
2022-10-11T00:13:58.925Z,75.60
2022-10-11T00:16:26.746Z,75.80
2022-10-11T00:18:54.554Z,75.70
2022-10-11T00:21:22.642Z,75.50
2022-10-11T00:23:50.798Z,75.50
2022-10-11T00:26:19.882Z,75.50
2022-10-11T00:28:47.878Z,75.40
2022-10-11T00:31:16.632Z,75.30
2022-10-11T00:33:44.485Z,75.20
2022-10-11T00:36:14.376Z,75.20
2022-10-11T00:38:42.492Z,75.30
2022-10-11T00:41:10.730Z,75.30
2022-10-11T00:43:40.398Z,75.30
2022-10-11T00:46:27.738Z,75.10
2022-10-11T00:49:00.830Z,75.10
2022-10-11T00:51:38.670Z,75.00
2022-10-11T00:54:08.527Z,75.10
2022-10-11T00:56:39.968Z,75.10
2022-10-11T00:59:15.027Z,75.00
2022-10-11T01:01:42.912Z,74.90
2022-10-11T01:04:10.838Z,75.10
2022-10-11T01:06:38.640Z,75.10
2022-10-11T01:09:06.519Z,75.20
2022-10-11T01:11:37.257Z,75.20
2022-10-11T01:14:30.083Z,75.30
2022-10-11T01:17:04.510Z,75.10
2022-10-11T01:19:52.191Z,75.00
2022-10-11T01:22:37.479Z,74.70
2022-10-11T01:25:20.015Z,74.70
2022-10-11T01:28:02.919Z,74.90
2022-10-11T01:30:34.037Z,75.00
2022-10-11T01:33:13.973Z,75.10
2022-10-11T01:35:49.286Z,74.90
2022-10-11T01:38:24.522Z,74.80
2022-10-11T01:40:57.098Z,75.00
2022-10-11T01:43:26.981Z,75.50
2022-10-11T01:45:58.821Z,74.90
2022-10-11T01:48:26.707Z,74.90
2022-10-11T01:50:56.814Z,74.90
2022-10-11T01:53:47.025Z,74.80
2022-10-11T01:56:23.552Z,75.00
2022-10-11T01:59:07.960Z,74.80
2022-10-11T02:01:49.915Z,74.80
2022-10-11T02:04:28.306Z,74.60
2022-10-11T02:07:01.638Z,75.00
2022-10-11T02:09:37.086Z,74.70
2022-10-11T02:12:09.351Z,74.80
2022-10-11T02:14:42.261Z,74.60
2022-10-11T02:17:15.139Z,74.60
2022-10-11T02:19:46.375Z,74.90
2022-10-11T02:22:19.743Z,74.70
2022-10-11T02:24:50.326Z,74.60
2022-10-11T02:27:22.820Z,74.40
2022-10-11T02:29:53.896Z,74.40
2022-10-11T02:32:26.427Z,74.30
2022-10-11T02:34:56.662Z,74.50
2022-10-11T02:37:32.047Z,74.50
2022-10-11T02:40:05.844Z,74.50
2022-10-11T02:42:37.942Z,74.60
2022-10-11T02:45:11.680Z,74.40
2022-10-11T02:47:42.230Z,74.40
2022-10-11T02:50:12.019Z,74.30
2022-10-11T02:52:39.908Z,74.30
2022-10-11T02:55:09.604Z,74.30
2022-10-11T02:57:37.423Z,74.30
2022-10-11T03:00:06.072Z,74.20
2022-10-11T03:02:33.980Z,74.30
2022-10-11T03:05:03.278Z,74.30
2022-10-11T03:07:31.077Z,74.20
2022-10-11T03:09:58.915Z,74.30
2022-10-11T03:12:26.742Z,74.30
2022-10-11T03:14:54.586Z,74.20
2022-10-11T03:17:36.019Z,74.10
2022-10-11T03:20:07.204Z,74.10
2022-10-11T03:22:35.063Z,74.30
2022-10-11T03:25:04.589Z,74.20
2022-10-11T03:27:32.751Z,74.50
2022-10-11T03:30:00.632Z,74.30
2022-10-11T03:32:28.451Z,74.20
2022-10-11T03:34:56.292Z,74.60
2022-10-11T03:37:25.715Z,74.30
2022-10-11T03:39:53.878Z,74.00
2022-10-11T03:42:22.013Z,73.70
2022-10-11T03:44:51.805Z,73.30
2022-10-11T03:47:19.957Z,72.90
2022-10-11T03:49:47.819Z,72.20
2022-10-11T03:52:15.618Z,71.80
2022-10-11T03:54:44.836Z,71.40
2022-10-11T03:57:12.614Z,71.10
2022-10-11T03:59:40.363Z,70.90
2022-10-11T04:02:08.197Z,70.60
2022-10-11T04:04:37.512Z,70.40
2022-10-11T04:07:05.277Z,70.50
2022-10-11T04:09:33.129Z,70.30
2022-10-11T04:12:02.375Z,70.30
2022-10-11T04:14:30.310Z,70.30
2022-10-11T04:17:00.404Z,70.50
2022-10-11T04:19:28.831Z,70.70
2022-10-11T04:21:57.068Z,70.70
2022-10-11T04:24:24.894Z,70.90
2022-10-11T04:26:52.722Z,70.70
2022-10-11T04:29:22.252Z,70.90
2022-10-11T04:31:50.112Z,70.90
2022-10-11T04:34:18.036Z,71.60
2022-10-11T04:36:49.760Z,70.90
2022-10-11T04:39:18.225Z,71.20
2022-10-11T04:41:46.047Z,71.40
2022-10-11T04:44:13.848Z,71.60
2022-10-11T04:46:43.129Z,71.60
2022-10-11T04:49:10.960Z,71.60
2022-10-11T04:51:38.809Z,71.80
2022-10-11T04:54:06.696Z,71.90
2022-10-11T04:56:34.604Z,72.00
2022-10-11T04:59:02.376Z,72.00
2022-10-11T05:01:30.203Z,72.20
2022-10-11T05:03:59.349Z,72.30
2022-10-11T05:06:27.358Z,72.50
2022-10-11T05:08:55.183Z,72.50
2022-10-11T05:11:23.293Z,72.50
2022-10-11T05:13:51.077Z,72.60
2022-10-11T05:16:19.063Z,72.60
2022-10-11T05:18:46.844Z,72.50
2022-10-11T05:21:18.896Z,73.30
2022-10-11T05:23:47.791Z,72.60
2022-10-11T05:26:15.889Z,72.40
2022-10-11T05:28:44.286Z,72.60
2022-10-11T05:31:12.530Z,72.70
2022-10-11T05:33:40.336Z,72.90
2022-10-11T05:36:09.380Z,72.70
2022-10-11T05:38:39.334Z,72.90
2022-10-11T05:41:09.172Z,73.00
2022-10-11T05:43:37.458Z,72.80
2022-10-11T05:46:05.765Z,72.80
2022-10-11T05:48:34.198Z,73.00
2022-10-11T05:51:03.222Z,72.90
2022-10-11T05:53:31.106Z,72.90
2022-10-11T05:56:00.484Z,73.00
2022-10-11T05:58:28.808Z,73.10
2022-10-11T06:00:57.625Z,73.00
2022-10-11T06:03:25.457Z,71.50
2022-10-11T06:05:56.750Z,73.30
2022-10-11T06:08:24.903Z,75.30
2022-10-11T06:10:52.678Z,76.40
2022-10-11T06:13:21.788Z,76.50
2022-10-11T06:15:49.560Z,77.40
2022-10-11T06:18:17.363Z,78.20
2022-10-11T06:20:45.136Z,77.20
2022-10-11T06:23:12.966Z,77.50
2022-10-11T06:25:40.750Z,77.50
2022-10-11T06:28:08.606Z,78.20
2022-10-11T06:30:39.728Z,78.70
2022-10-11T06:33:07.549Z,79.00
2022-10-11T06:35:35.311Z,79.90
2022-10-11T06:38:03.097Z,79.20
2022-10-11T06:40:30.889Z,79.40
2022-10-11T06:42:58.690Z,79.60
2022-10-11T06:45:26.481Z,78.70
2022-10-11T06:47:55.612Z,79.00
2022-10-11T06:50:47.081Z,79.10
2022-10-11T06:53:11.535Z,81.00
2022-10-11T06:55:39.307Z,80.80
2022-10-11T06:58:07.118Z,81.50
2022-10-11T07:00:34.924Z,80.60
2022-10-11T07:03:04.497Z,81.30
2022-10-11T07:05:34.612Z,81.40
2022-10-11T07:08:02.488Z,82.00
2022-10-11T07:10:30.259Z,81.70
2022-10-11T07:12:58.031Z,82.00
2022-10-11T07:15:25.804Z,81.20
2022-10-11T07:17:53.603Z,80.50
2022-10-11T07:20:22.726Z,80.70
2022-10-11T07:22:50.511Z,80.50
2022-10-11T07:25:18.455Z,80.50
2022-10-11T07:27:46.234Z,79.60
2022-10-11T07:30:14.292Z,77.90
2022-10-11T07:32:42.108Z,76.50
2022-10-11T07:35:10.114Z,76.00
2022-10-11T07:37:39.256Z,75.40
2022-10-11T07:40:10.779Z,74.90
2022-10-11T07:42:38.668Z,74.50
2022-10-11T07:45:07.206Z,74.10
2022-10-11T07:47:35.026Z,73.30
2022-10-11T07:50:02.896Z,73.00
2022-10-11T07:52:30.700Z,71.70
2022-10-11T07:54:59.802Z,70.80
2022-10-11T07:57:27.612Z,70.30
2022-10-11T07:59:55.378Z,71.00
2022-10-11T08:02:23.136Z,70.50
2022-10-11T08:04:50.926Z,69.80
2022-10-11T08:07:18.732Z,69.40
2022-10-11T08:09:46.499Z,69.20
2022-10-11T08:12:15.672Z,69.00
2022-10-11T08:14:43.450Z,68.50
2022-10-11T08:17:11.232Z,68.20
2022-10-11T08:19:39.010Z,67.80
2022-10-11T08:22:07.008Z,67.30
2022-10-11T08:24:38.281Z,67.10
2022-10-11T08:27:06.599Z,67.30
2022-10-11T08:29:35.737Z,67.00
2022-10-11T08:32:03.516Z,66.70
2022-10-11T08:34:31.312Z,66.10
2022-10-11T08:36:59.088Z,66.00
2022-10-11T08:39:26.853Z,66.00
2022-10-11T08:41:56.794Z,65.40
2022-10-11T08:45:05.477Z,65.20
2022-10-11T08:47:31.442Z,64.70
2022-10-11T08:50:00.504Z,64.50
2022-10-11T08:52:32.082Z,64.70
2022-10-11T08:55:05.543Z,65.40
2022-10-11T08:57:36.867Z,65.30
2022-10-11T09:00:08.566Z,65.70
2022-10-11T09:03:07.092Z,65.70
2022-10-11T09:05:35.949Z,66.20
2022-10-11T09:08:11.411Z,63.90
2022-10-11T09:11:04.063Z,63.20
2022-10-11T09:13:58.669Z,63.00
2022-10-11T09:16:37.525Z,62.60
2022-10-11T09:19:22.982Z,64.20
2022-10-11T09:22:00.403Z,65.20
2022-10-11T09:24:37.864Z,66.30
2022-10-11T09:27:13.828Z,68.00
2022-10-11T09:29:51.947Z,67.20
2022-10-11T09:32:21.930Z,65.90
2022-10-11T09:34:56.599Z,66.10
2022-10-11T09:37:30.373Z,66.60
2022-10-11T09:40:04.669Z,66.50
2022-10-11T09:42:32.450Z,66.80
2022-10-11T09:45:02.830Z,67.40
2022-10-11T09:47:32.924Z,67.70
2022-10-11T09:50:03.936Z,68.50
2022-10-11T09:52:32.068Z,68.80
2022-10-11T09:55:01.372Z,68.40
2022-10-11T09:57:31.408Z,68.30
2022-10-11T10:00:02.259Z,68.70
2022-10-11T10:02:46.776Z,68.50
2022-10-11T10:05:18.597Z,68.80
2022-10-11T10:08:08.000Z,68.90
2022-10-11T10:10:39.603Z,69.00
2022-10-11T10:13:20.027Z,69.40
2022-10-11T10:15:50.766Z,69.00
2022-10-11T10:18:24.607Z,69.10
2022-10-11T10:20:54.936Z,68.00
2022-10-11T10:23:25.768Z,67.50
2022-10-11T10:26:09.566Z,67.00
2022-10-11T10:28:37.694Z,66.60
2022-10-11T10:31:05.509Z,66.30
2022-10-11T10:33:35.850Z,66.00
2022-10-11T10:36:09.351Z,65.80
2022-10-11T10:38:41.630Z,65.50
2022-10-11T10:41:13.407Z,65.70
2022-10-11T10:43:43.112Z,64.80
2022-10-11T10:46:27.235Z,66.30
2022-10-11T10:52:03.022Z,64.80
2022-10-11T10:54:41.225Z,65.20
2022-10-11T10:57:19.058Z,64.40
2022-10-11T11:00:06.104Z,65.30
2022-10-11T11:02:41.811Z,64.90
2022-10-11T11:05:26.950Z,65.70
2022-10-11T11:08:04.229Z,66.80
2022-10-11T11:10:37.894Z,66.00
2022-10-11T11:13:19.779Z,67.20
2022-10-11T11:15:53.599Z,67.00
2022-10-11T11:18:29.909Z,67.00
2022-10-11T11:21:19.786Z,65.40
2022-10-11T11:23:56.762Z,65.10
2022-10-11T11:26:33.616Z,65.20
2022-10-11T11:29:12.196Z,66.60
2022-10-11T11:31:58.038Z,66.60
2022-10-11T11:34:29.430Z,67.20
2022-10-11T11:37:02.822Z,67.00
2022-10-11T11:39:35.840Z,65.10
2022-10-11T11:42:10.455Z,67.30
2022-10-11T11:44:42.392Z,67.60
2022-10-11T11:47:17.723Z,65.50
2022-10-11T11:49:50.214Z,66.10
2022-10-11T11:52:27.390Z,67.40
2022-10-11T11:55:04.238Z,66.20
2022-10-11T11:57:42.164Z,67.30
2022-10-11T12:00:16.760Z,67.40
2022-10-11T12:02:49.790Z,66.30
2022-10-11T12:05:21.482Z,66.80
2022-10-11T12:07:55.544Z,66.50
2022-10-11T12:10:30.236Z,67.10
2022-10-11T12:13:19.938Z,66.70
2022-10-11T12:16:10.081Z,66.30
2022-10-11T12:18:50.592Z,65.80
2022-10-11T12:21:23.169Z,64.90
2022-10-11T12:23:53.654Z,67.40
2022-10-11T12:26:43.283Z,66.80
2022-10-11T12:29:45.927Z,66.80
2022-10-11T12:32:51.023Z,65.70
2022-10-11T12:36:04.020Z,65.00
2022-10-11T12:38:37.676Z,65.70
2022-10-11T12:41:50.675Z,65.60
2022-10-11T12:44:23.903Z,65.70
2022-10-11T12:47:14.246Z,66.80
2022-10-11T12:49:56.783Z,66.20
2022-10-11T12:52:35.397Z,65.70
2022-10-11T12:55:30.534Z,66.40
2022-10-11T12:58:28.618Z,67.50
2022-10-11T13:01:12.848Z,67.10
2022-10-11T13:03:43.420Z,66.90
2022-10-11T13:06:15.010Z,67.00
2022-10-11T13:08:46.324Z,66.90
2022-10-11T13:11:19.999Z,66.40
2022-10-11T13:13:54.061Z,66.10
2022-10-11T13:16:25.089Z,66.60
2022-10-11T13:18:58.432Z,66.80
2022-10-11T13:21:30.573Z,66.80
2022-10-11T13:24:01.108Z,66.90
2022-10-11T13:26:31.457Z,67.10
2022-10-11T13:29:01.302Z,66.40
2022-10-11T13:31:29.629Z,67.00
2022-10-11T13:33:59.890Z,67.10
2022-10-11T13:36:28.534Z,67.10
2022-10-11T13:38:58.680Z,66.40
2022-10-11T13:41:28.100Z,66.20
2022-10-11T13:43:57.745Z,66.00
2022-10-11T13:46:28.829Z,66.70
2022-10-11T13:49:01.566Z,66.30
2022-10-11T13:51:33.119Z,65.90
2022-10-11T13:54:03.191Z,66.20
2022-10-11T13:56:33.625Z,66.10
2022-10-11T13:59:02.043Z,66.10
2022-10-11T14:01:39.325Z,65.60
2022-10-11T14:04:09.896Z,66.10
2022-10-11T14:06:47.239Z,66.00
2022-10-11T14:09:21.636Z,64.80
2022-10-11T14:11:49.946Z,64.80
2022-10-11T14:14:41.889Z,65.00
2022-10-11T14:17:17.156Z,65.40
2022-10-11T14:19:46.014Z,65.10
2022-10-11T14:22:16.419Z,65.30
2022-10-11T14:24:47.258Z,65.80
2022-10-11T14:27:19.216Z,65.20
2022-10-11T14:30:00.491Z,66.40
2022-10-11T14:32:37.244Z,66.90
2022-10-11T14:35:05.726Z,66.70
2022-10-11T14:37:33.574Z,67.20
2022-10-11T14:40:01.356Z,67.20
2022-10-11T14:42:29.156Z,66.60
2022-10-11T14:44:56.948Z,66.30
2022-10-11T14:47:24.755Z,66.90
2022-10-11T14:49:53.874Z,66.60
2022-10-11T14:52:21.687Z,67.50
2022-10-11T14:54:49.474Z,67.50
2022-10-11T14:57:17.252Z,68.20
2022-10-11T14:59:45.100Z,67.70
2022-10-11T15:02:13.116Z,68.00
2022-10-11T15:04:40.964Z,68.60
2022-10-11T15:07:13.818Z,68.60
2022-10-11T15:09:41.655Z,68.20
2022-10-11T15:12:10.490Z,67.90
2022-10-11T15:14:38.308Z,68.20
2022-10-11T15:17:06.086Z,67.80
2022-10-11T15:19:33.914Z,68.30
2022-10-11T15:22:04.204Z,68.30
2022-10-11T15:24:33.348Z,68.30
2022-10-11T15:27:01.112Z,69.00
2022-10-11T15:29:29.117Z,69.40
2022-10-11T15:31:56.900Z,69.80
2022-10-11T15:34:24.703Z,69.60
2022-10-11T15:36:52.472Z,69.70
2022-10-11T15:39:30.492Z,69.70
2022-10-11T15:42:00.258Z,69.80
2022-10-11T15:44:28.099Z,69.10
2022-10-11T15:46:55.919Z,69.40
2022-10-11T15:49:23.813Z,69.80
2022-10-11T15:51:51.599Z,69.90
2022-10-11T15:54:19.420Z,70.00
2022-10-11T15:56:47.660Z,69.40
2022-10-11T15:59:16.755Z,69.50
2022-10-11T16:01:44.577Z,69.50
2022-10-11T16:04:12.382Z,70.40
2022-10-11T16:06:40.929Z,69.70
2022-10-11T16:09:08.770Z,70.50
2022-10-11T16:11:36.584Z,70.60
2022-10-11T16:14:04.511Z,70.80
2022-10-11T16:16:33.685Z,70.90
2022-10-11T16:19:01.437Z,71.50
2022-10-11T16:21:29.361Z,72.00
2022-10-11T16:23:57.137Z,72.40
2022-10-11T16:26:24.948Z,72.70
2022-10-11T16:28:52.769Z,72.60
2022-10-11T16:31:21.036Z,73.20
2022-10-11T16:33:52.720Z,73.40
2022-10-11T16:36:32.638Z,73.80
2022-10-11T16:39:01.323Z,73.90
2022-10-11T16:41:29.173Z,74.20
2022-10-11T16:43:57.440Z,74.30
2022-10-11T16:46:25.703Z,74.50
2022-10-11T16:48:56.686Z,74.80
2022-10-11T16:51:25.213Z,74.80
2022-10-11T16:53:53.493Z,74.80
2022-10-11T16:56:22.562Z,75.00
2022-10-11T16:58:51.346Z,75.30
2022-10-11T17:01:19.589Z,75.50
2022-10-11T17:03:47.484Z,76.80
2022-10-11T17:06:16.603Z,75.20
2022-10-11T17:08:44.378Z,74.80
2022-10-11T17:11:12.166Z,74.40
2022-10-11T17:13:40.012Z,74.20
2022-10-11T17:16:08.986Z,74.10
2022-10-11T17:18:37.451Z,74.00
2022-10-11T17:21:07.538Z,74.00
2022-10-11T17:23:36.886Z,73.80
2022-10-11T17:26:10.975Z,73.50
2022-10-11T17:28:39.655Z,73.40
2022-10-11T17:31:08.709Z,73.30
2022-10-11T17:33:37.071Z,73.10
2022-10-11T17:36:15.356Z,73.20
2022-10-11T17:38:44.482Z,73.30
2022-10-11T17:41:12.747Z,73.40
2022-10-11T17:43:40.728Z,73.20
2022-10-11T17:46:09.421Z,73.20
2022-10-11T17:48:39.144Z,73.30
2022-10-11T17:51:08.903Z,73.30
2022-10-11T17:53:37.421Z,73.30
2022-10-11T17:56:07.992Z,73.40
2022-10-11T17:58:36.043Z,73.40
2022-10-11T18:01:05.229Z,73.30
2022-10-11T18:03:33.719Z,73.40
2022-10-11T18:06:04.186Z,73.50
2022-10-11T18:08:35.308Z,74.20
2022-10-11T18:11:10.008Z,73.60
2022-10-11T18:13:37.853Z,73.30
2022-10-11T18:16:06.407Z,73.50
2022-10-11T18:18:34.463Z,73.00
2022-10-11T18:21:02.238Z,73.10
2022-10-11T18:23:30.056Z,73.40
2022-10-11T18:25:57.855Z,73.60
2022-10-11T18:28:27.030Z,73.60
2022-10-11T18:30:56.025Z,73.50
2022-10-11T18:33:23.826Z,73.60
2022-10-11T18:36:00.199Z,73.70
2022-10-11T18:38:27.976Z,73.50
2022-10-11T18:40:55.739Z,73.60
2022-10-11T18:43:23.606Z,73.60
2022-10-11T18:45:52.699Z,73.60
2022-10-11T18:48:20.455Z,73.40
2022-10-11T18:50:49.498Z,73.80
2022-10-11T18:53:17.292Z,73.30
2022-10-11T18:55:45.036Z,74.20
2022-10-11T18:58:12.792Z,74.10
2022-10-11T19:00:41.540Z,74.10
2022-10-11T19:03:10.877Z,74.00
2022-10-11T19:05:39.679Z,73.70
2022-10-11T19:08:07.521Z,73.50
2022-10-11T19:10:35.291Z,73.60
2022-10-11T19:13:03.080Z,73.60
2022-10-11T19:15:30.880Z,73.70
2022-10-11T19:17:58.641Z,73.60
2022-10-11T19:20:27.759Z,73.90
2022-10-11T19:22:55.552Z,74.00
2022-10-11T19:25:24.202Z,74.10
2022-10-11T19:27:51.974Z,74.40
2022-10-11T19:30:19.748Z,74.60
2022-10-11T19:32:47.539Z,74.50
2022-10-11T19:35:19.822Z,74.60
2022-10-11T19:37:49.283Z,74.50
2022-10-11T19:40:17.099Z,74.50
2022-10-11T19:42:44.881Z,74.10
2022-10-11T19:45:12.636Z,73.60
2022-10-11T19:47:40.452Z,74.30
2022-10-11T19:50:09.147Z,74.10
2022-10-11T19:52:40.358Z,73.50
2022-10-11T19:55:12.144Z,73.20
2022-10-11T19:57:39.940Z,73.60
2022-10-11T20:00:09.028Z,73.30
2022-10-11T20:02:36.843Z,72.90
2022-10-11T20:05:05.099Z,72.90
2022-10-11T20:07:33.112Z,72.80
2022-10-11T20:10:01.100Z,72.80
2022-10-11T20:12:30.535Z,72.50
2022-10-11T20:14:58.733Z,72.50
2022-10-11T20:17:46.633Z,72.50
2022-10-11T20:20:14.583Z,72.40
2022-10-11T20:22:42.392Z,72.40
2022-10-11T20:25:10.561Z,72.20
2022-10-11T20:27:42.360Z,72.10
2022-10-11T20:30:12.147Z,72.20
2022-10-11T20:32:39.939Z,72.00
2022-10-11T20:35:09.324Z,71.90
2022-10-11T20:37:37.968Z,71.80
2022-10-11T20:40:06.157Z,71.90
2022-10-11T20:42:34.035Z,72.00
2022-10-11T20:45:03.152Z,71.80
2022-10-11T20:47:31.344Z,71.80
2022-10-11T20:49:59.448Z,71.80
2022-10-11T20:52:27.283Z,71.70
2022-10-11T20:54:55.088Z,71.80
2022-10-11T20:57:22.847Z,72.00
2022-10-11T20:59:50.600Z,71.80
2022-10-11T21:02:19.736Z,72.00
2022-10-11T21:04:47.511Z,71.70
2022-10-11T21:07:15.286Z,71.70
2022-10-11T21:09:43.070Z,71.90
2022-10-11T21:12:10.838Z,71.80
2022-10-11T21:14:38.595Z,71.40
2022-10-11T21:17:06.367Z,71.70
2022-10-11T21:19:35.480Z,71.90
2022-10-11T21:22:03.552Z,71.80
2022-10-11T21:24:31.420Z,71.90
2022-10-11T21:27:00.812Z,71.90
2022-10-11T21:29:28.798Z,71.80
2022-10-11T21:31:56.628Z,71.90
2022-10-11T21:34:24.425Z,71.90
2022-10-11T21:36:53.546Z,71.90
2022-10-11T21:39:21.548Z,71.80
2022-10-11T21:41:49.316Z,71.40
2022-10-11T21:44:17.165Z,71.50
2022-10-11T21:49:32.703Z,71.50
2022-10-11T21:52:01.902Z,71.60
2022-10-11T21:54:29.706Z,71.80
2022-10-11T21:56:57.500Z,72.00
2022-10-11T21:59:25.242Z,71.90
2022-10-11T22:01:55.054Z,71.60
2022-10-11T22:04:26.034Z,72.00
2022-10-11T22:06:53.806Z,71.80
2022-10-11T22:09:22.982Z,71.60
2022-10-11T22:11:50.752Z,71.90
2022-10-11T22:14:18.982Z,71.80
2022-10-11T22:16:46.748Z,71.60
2022-10-11T22:19:14.526Z,71.40
2022-10-11T22:21:45.094Z,71.80
2022-10-11T22:24:13.276Z,71.40
2022-10-11T22:26:42.407Z,71.60
2022-10-11T22:29:10.454Z,71.50
2022-10-11T22:31:38.227Z,71.70
2022-10-11T22:34:06.018Z,71.60
2022-10-11T22:36:33.867Z,71.70
2022-10-11T22:39:02.671Z,71.60
2022-10-11T22:41:30.448Z,71.50
2022-10-11T22:43:59.576Z,71.70
2022-10-11T22:46:27.358Z,72.00
2022-10-11T22:48:55.166Z,72.50
2022-10-11T22:51:22.979Z,71.40
2022-10-11T22:53:50.775Z,71.80
2022-10-11T22:56:18.548Z,71.90
2022-10-11T22:58:46.397Z,71.90
2022-10-11T23:01:16.870Z,71.90
2022-10-11T23:03:48.063Z,72.00
2022-10-11T23:06:15.891Z,72.20
2022-10-11T23:08:44.294Z,71.90
2022-10-11T23:11:12.609Z,71.60
2022-10-11T23:13:40.474Z,71.90
2022-10-11T23:16:09.574Z,71.80
2022-10-11T23:18:39.444Z,71.90
2022-10-11T23:21:08.323Z,72.20
2022-10-11T23:23:36.401Z,72.00
2022-10-11T23:26:06.545Z,71.60
2022-10-11T23:28:34.588Z,71.90
2022-10-11T23:31:07.467Z,71.90
2022-10-11T23:33:35.352Z,71.80
2022-10-11T23:36:04.755Z,71.80
2022-10-11T23:38:32.549Z,71.80
2022-10-11T23:41:00.329Z,71.40
2022-10-11T23:43:28.587Z,71.90
2022-10-11T23:45:57.197Z,71.80
2022-10-11T23:48:25.052Z,72.30
2022-10-11T23:50:52.870Z,72.20
2022-10-11T23:53:21.998Z,72.30
2022-10-11T23:55:49.770Z,72.10
2022-10-11T23:58:17.549Z,72.00
